sensor_id;sensor_type;location;lat;lon;timestamp;pressure;altitude;pressure_sealevel;temperature;humidity
47524;BME280;33253;42.144;25.884;2022-12-18T00:01:24;101167.50;;;9.25;100.00
47524;BME280;33253;42.144;25.884;2022-12-18T00:03:50;101173.47;;;9.23;100.00
47524;BME280;33253;42.144;25.884;2022-12-18T00:06:17;101153.88;;;9.11;100.00
47524;BME280;33253;42.144;25.884;2022-12-18T00:08:43;101191.66;;;9.27;100.00
47524;BME280;33253;42.144;25.884;2022-12-18T00:11:14;101183.78;;;9.23;100.00
47524;BME280;33253;42.144;25.884;2022-12-18T00:13:40;101182.97;;;9.41;100.00
47524;BME280;33253;42.144;25.884;2022-12-18T00:16:09;101182.25;;;9.44;100.00
47524;BME280;33253;42.144;25.884;2022-12-18T00:18:35;101168.00;;;9.50;100.00
47524;BME280;33253;42.144;25.884;2022-12-18T00:21:03;101154.97;;;9.47;100.00
47524;BME280;33253;42.144;25.884;2022-12-18T00:23:29;101169.34;;;9.60;100.00
47524;BME280;33253;42.144;25.884;2022-12-18T00:25:59;101136.66;;;9.59;100.00
47524;BME280;33253;42.144;25.884;2022-12-18T00:28:25;101169.50;;;9.80;100.00
47524;BME280;33253;42.144;25.884;2022-12-18T00:30:50;101163.13;;;9.73;100.00
47524;BME280;33253;42.144;25.884;2022-12-18T00:33:17;101150.50;;;9.61;100.00
47524;BME280;33253;42.144;25.884;2022-12-18T00:35:42;101132.31;;;9.42;100.00
47524;BME280;33253;42.144;25.884;2022-12-18T00:38:08;101131.59;;;9.28;100.00
47524;BME280;33253;42.144;25.884;2022-12-18T00:40:33;101140.19;;;9.28;100.00
47524;BME280;33253;42.144;25.884;2022-12-18T00:42:59;101159.78;;;9.25;100.00
47524;BME280;33253;42.144;25.884;2022-12-18T00:45:26;101162.03;;;9.18;100.00
47524;BME280;33253;42.144;25.884;2022-12-18T00:47:52;101166.34;;;9.19;100.00
47524;BME280;33253;42.144;25.884;2022-12-18T00:50:18;101174.09;;;9.19;100.00
47524;BME280;33253;42.144;25.884;2022-12-18T00:52:44;101157.50;;;9.14;100.00
47524;BME280;33253;42.144;25.884;2022-12-18T00:55:10;101189.34;;;9.31;100.00
47524;BME280;33253;42.144;25.884;2022-12-18T00:57:35;101175.66;;;9.32;100.00
47524;BME280;33253;42.144;25.884;2022-12-18T01:00:02;101162.50;;;9.28;100.00
47524;BME280;33253;42.144;25.884;2022-12-18T01:02:28;101140.38;;;9.15;100.00
47524;BME280;33253;42.144;25.884;2022-12-18T01:04:53;101163.31;;;9.27;100.00
47524;BME280;33253;42.144;25.884;2022-12-18T01:07:19;101157.34;;;9.28;100.00
47524;BME280;33253;42.144;25.884;2022-12-18T01:09:44;101172.28;;;9.33;100.00
47524;BME280;33253;42.144;25.884;2022-12-18T01:12:09;101152.94;;;9.25;100.00
47524;BME280;33253;42.144;25.884;2022-12-18T01:14:36;101185.78;;;9.46;100.00
47524;BME280;33253;42.144;25.884;2022-12-18T01:17:03;101182.00;;;9.55;100.00
47524;BME280;33253;42.144;25.884;2022-12-18T01:19:28;101187.41;;;9.60;100.00
47524;BME280;33253;42.144;25.884;2022-12-18T01:21:54;101178.16;;;9.64;100.00
47524;BME280;33253;42.144;25.884;2022-12-18T01:24:19;101145.69;;;9.51;100.00
47524;BME280;33253;42.144;25.884;2022-12-18T01:26:45;101161.31;;;9.54;100.00
47524;BME280;33253;42.144;25.884;2022-12-18T01:29:10;101172.25;;;9.66;100.00
47524;BME280;33253;42.144;25.884;2022-12-18T01:31:36;101144.78;;;9.50;100.00
47524;BME280;33253;42.144;25.884;2022-12-18T01:34:03;101172.66;;;9.58;100.00
47524;BME280;33253;42.144;25.884;2022-12-18T01:36:31;101191.19;;;9.67;100.00
47524;BME280;33253;42.144;25.884;2022-12-18T01:39:12;101187.25;;;9.57;100.00
47524;BME280;33253;42.144;25.884;2022-12-18T01:41:38;101165.56;;;9.20;100.00
47524;BME280;33253;42.144;25.884;2022-12-18T01:47:46;101199.69;;;9.16;100.00
47524;BME280;33253;42.144;25.884;2022-12-18T01:50:32;101161.63;;;8.79;100.00
47524;BME280;33253;42.144;25.884;2022-12-18T01:53:06;101197.63;;;8.94;100.00
47524;BME280;33253;42.144;25.884;2022-12-18T01:55:39;101196.41;;;8.87;100.00
47524;BME280;33253;42.144;25.884;2022-12-18T01:58:05;101202.34;;;8.86;100.00
47524;BME280;33253;42.144;25.884;2022-12-18T02:00:31;101197.66;;;8.79;100.00
47524;BME280;33253;42.144;25.884;2022-12-18T02:02:56;101211.88;;;8.72;100.00
47524;BME280;33253;42.144;25.884;2022-12-18T02:05:33;101213.84;;;8.62;100.00
47524;BME280;33253;42.144;25.884;2022-12-18T02:10:46;101158.28;;;8.35;100.00
47524;BME280;33253;42.144;25.884;2022-12-18T02:13:20;101189.16;;;8.65;100.00
47524;BME280;33253;42.144;25.884;2022-12-18T02:18:44;101157.59;;;8.53;100.00
47524;BME280;33253;42.144;25.884;2022-12-18T02:23:52;101145.94;;;8.60;100.00
47524;BME280;33253;42.144;25.884;2022-12-18T02:26:33;101182.41;;;8.82;100.00
47524;BME280;33253;42.144;25.884;2022-12-18T02:29:05;101189.25;;;8.98;100.00
47524;BME280;33253;42.144;25.884;2022-12-18T02:31:36;101197.78;;;9.12;100.00
47524;BME280;33253;42.144;25.884;2022-12-18T02:34:06;101189.72;;;9.22;100.00
47524;BME280;33253;42.144;25.884;2022-12-18T02:36:33;101176.19;;;9.27;100.00
47524;BME280;33253;42.144;25.884;2022-12-18T02:39:01;101180.63;;;9.29;100.00
47524;BME280;33253;42.144;25.884;2022-12-18T02:41:28;101166.53;;;9.22;100.00
47524;BME280;33253;42.144;25.884;2022-12-18T02:43:57;101176.28;;;9.28;100.00
47524;BME280;33253;42.144;25.884;2022-12-18T02:46:34;101169.38;;;9.27;100.00
47524;BME280;33253;42.144;25.884;2022-12-18T02:49:17;101193.44;;;9.28;100.00
47524;BME280;33253;42.144;25.884;2022-12-18T02:51:55;101197.47;;;9.39;100.00
47524;BME280;33253;42.144;25.884;2022-12-18T02:58:04;101144.22;;;9.23;100.00
47524;BME280;33253;42.144;25.884;2022-12-18T03:00:38;101184.66;;;9.41;100.00
47524;BME280;33253;42.144;25.884;2022-12-18T03:03:19;101212.78;;;9.52;100.00
47524;BME280;33253;42.144;25.884;2022-12-18T03:06:02;101225.81;;;9.55;100.00
47524;BME280;33253;42.144;25.884;2022-12-18T03:08:33;101214.47;;;9.52;100.00
47524;BME280;33253;42.144;25.884;2022-12-18T03:11:09;101219.06;;;9.58;100.00
47524;BME280;33253;42.144;25.884;2022-12-18T03:16:12;101220.84;;;9.59;100.00
47524;BME280;33253;42.144;25.884;2022-12-18T03:18:50;101219.63;;;9.52;100.00
47524;BME280;33253;42.144;25.884;2022-12-18T03:21:20;101245.91;;;9.61;100.00
47524;BME280;33253;42.144;25.884;2022-12-18T03:23:49;101244.69;;;9.54;100.00
47524;BME280;33253;42.144;25.884;2022-12-18T03:26:24;101243.00;;;9.55;100.00
47524;BME280;33253;42.144;25.884;2022-12-18T03:29:02;101240.72;;;9.45;100.00
47524;BME280;33253;42.144;25.884;2022-12-18T03:31:30;101235.56;;;9.45;100.00
47524;BME280;33253;42.144;25.884;2022-12-18T03:34:05;101247.44;;;9.58;100.00
47524;BME280;33253;42.144;25.884;2022-12-18T03:36:33;101263.56;;;9.70;100.00
47524;BME280;33253;42.144;25.884;2022-12-18T03:38:59;101241.94;;;9.51;100.00
47524;BME280;33253;42.144;25.884;2022-12-18T03:41:32;101263.34;;;9.50;100.00
47524;BME280;33253;42.144;25.884;2022-12-18T03:51:59;101296.25;;;9.54;100.00
47524;BME280;33253;42.144;25.884;2022-12-18T03:54:28;101281.00;;;9.59;100.00
47524;BME280;33253;42.144;25.884;2022-12-18T03:57:03;101269.97;;;9.62;100.00
47524;BME280;33253;42.144;25.884;2022-12-18T03:59:31;101294.09;;;9.79;100.00
47524;BME280;33253;42.144;25.884;2022-12-18T04:01:58;101293.63;;;9.86;100.00
47524;BME280;33253;42.144;25.884;2022-12-18T04:04:27;101300.78;;;9.92;100.00
47524;BME280;33253;42.144;25.884;2022-12-18T04:06:53;101269.84;;;9.75;100.00
47524;BME280;33253;42.144;25.884;2022-12-18T04:09:20;101306.50;;;10.02;100.00
47524;BME280;33253;42.144;25.884;2022-12-18T04:11:47;101284.34;;;9.90;100.00
47524;BME280;33253;42.144;25.884;2022-12-18T04:14:12;101305.84;;;10.07;100.00
47524;BME280;33253;42.144;25.884;2022-12-18T04:16:38;101277.75;;;9.95;100.00
47524;BME280;33253;42.144;25.884;2022-12-18T04:19:04;101306.03;;;10.10;100.00
47524;BME280;33253;42.144;25.884;2022-12-18T04:21:30;101295.94;;;9.98;100.00
47524;BME280;33253;42.144;25.884;2022-12-18T04:23:55;101306.84;;;10.09;100.00
47524;BME280;33253;42.144;25.884;2022-12-18T04:26:21;101323.03;;;10.06;100.00
47524;BME280;33253;42.144;25.884;2022-12-18T04:28:46;101309.91;;;10.01;100.00
47524;BME280;33253;42.144;25.884;2022-12-18T04:31:12;101275.47;;;9.68;100.00
47524;BME280;33253;42.144;25.884;2022-12-18T04:33:38;101332.38;;;9.87;100.00
47524;BME280;33253;42.144;25.884;2022-12-18T04:36:04;101328.94;;;9.87;100.00
47524;BME280;33253;42.144;25.884;2022-12-18T04:38:29;101308.78;;;9.80;100.00
47524;BME280;33253;42.144;25.884;2022-12-18T04:40:54;101315.13;;;9.86;100.00
47524;BME280;33253;42.144;25.884;2022-12-18T04:43:20;101330.28;;;9.97;100.00
47524;BME280;33253;42.144;25.884;2022-12-18T04:45:45;101284.97;;;9.69;100.00
47524;BME280;33253;42.144;25.884;2022-12-18T04:48:11;101308.03;;;9.82;100.00
47524;BME280;33253;42.144;25.884;2022-12-18T04:50:37;101337.88;;;9.94;100.00
47524;BME280;33253;42.144;25.884;2022-12-18T04:53:02;101335.28;;;9.94;100.00
47524;BME280;33253;42.144;25.884;2022-12-18T04:55:28;101338.53;;;9.90;100.00
47524;BME280;33253;42.144;25.884;2022-12-18T04:57:53;101326.41;;;9.72;100.00
47524;BME280;33253;42.144;25.884;2022-12-18T05:00:19;101346.41;;;9.76;100.00
47524;BME280;33253;42.144;25.884;2022-12-18T05:02:45;101322.09;;;9.56;100.00
47524;BME280;33253;42.144;25.884;2022-12-18T05:05:10;101321.31;;;9.57;100.00
47524;BME280;33253;42.144;25.884;2022-12-18T05:07:36;101344.19;;;9.67;100.00
47524;BME280;33253;42.144;25.884;2022-12-18T05:10:02;101355.72;;;9.74;100.00
47524;BME280;33253;42.144;25.884;2022-12-18T05:12:27;101348.91;;;9.75;100.00
47524;BME280;33253;42.144;25.884;2022-12-18T05:14:53;101356.25;;;9.83;100.00
47524;BME280;33253;42.144;25.884;2022-12-18T05:17:18;101352.94;;;9.86;100.00
47524;BME280;33253;42.144;25.884;2022-12-18T05:19:44;101333.31;;;9.73;100.00
47524;BME280;33253;42.144;25.884;2022-12-18T05:22:09;101352.94;;;9.86;100.00
47524;BME280;33253;42.144;25.884;2022-12-18T05:24:35;101349.56;;;9.87;100.00
47524;BME280;33253;42.144;25.884;2022-12-18T05:27:00;101371.56;;;9.97;100.00
47524;BME280;33253;42.144;25.884;2022-12-18T05:29:26;101370.03;;;10.00;100.00
47524;BME280;33253;42.144;25.884;2022-12-18T05:31:51;101365.44;;;9.95;100.00
47524;BME280;33253;42.144;25.884;2022-12-18T05:34:16;101384.88;;;10.04;100.00
47524;BME280;33253;42.144;25.884;2022-12-18T05:36:42;101372.94;;;9.90;100.00
47524;BME280;33253;42.144;25.884;2022-12-18T05:39:07;101393.75;;;9.93;100.00
47524;BME280;33253;42.144;25.884;2022-12-18T05:41:36;101380.63;;;9.74;100.00
47524;BME280;33253;42.144;25.884;2022-12-18T05:44:01;101389.25;;;9.74;100.00
47524;BME280;33253;42.144;25.884;2022-12-18T05:46:27;101391.41;;;9.66;100.00
47524;BME280;33253;42.144;25.884;2022-12-18T05:48:52;101409.00;;;9.74;100.00
47524;BME280;33253;42.144;25.884;2022-12-18T05:51:20;101415.03;;;9.74;100.00
47524;BME280;33253;42.144;25.884;2022-12-18T05:53:46;101419.59;;;9.78;100.00
47524;BME280;33253;42.144;25.884;2022-12-18T05:56:16;101423.56;;;9.73;100.00
47524;BME280;33253;42.144;25.884;2022-12-18T05:58:42;101424.56;;;9.75;100.00
47524;BME280;33253;42.144;25.884;2022-12-18T06:01:16;101435.06;;;9.78;100.00
47524;BME280;33253;42.144;25.884;2022-12-18T06:03:42;101420.13;;;9.73;100.00
47524;BME280;33253;42.144;25.884;2022-12-18T06:06:16;101429.78;;;9.77;100.00
47524;BME280;33253;42.144;25.884;2022-12-18T06:08:41;101427.13;;;9.75;100.00
47524;BME280;33253;42.144;25.884;2022-12-18T06:11:07;101450.56;;;9.95;100.00
47524;BME280;33253;42.144;25.884;2022-12-18T06:13:32;101433.06;;;9.89;100.00
47524;BME280;33253;42.144;25.884;2022-12-18T06:15:58;101463.50;;;10.11;100.00
47524;BME280;33253;42.144;25.884;2022-12-18T06:18:23;101468.00;;;10.15;100.00
47524;BME280;33253;42.144;25.884;2022-12-18T06:20:58;101469.06;;;10.19;100.00
47524;BME280;33253;42.144;25.884;2022-12-18T06:23:24;101472.78;;;10.24;100.00
47524;BME280;33253;42.144;25.884;2022-12-18T06:25:50;101462.97;;;10.17;100.00
47524;BME280;33253;42.144;25.884;2022-12-18T06:28:15;101481.44;;;10.25;100.00
47524;BME280;33253;42.144;25.884;2022-12-18T06:30:44;101460.13;;;10.12;100.00
47524;BME280;33253;42.144;25.884;2022-12-18T06:33:09;101478.53;;;10.18;100.00
47524;BME280;33253;42.144;25.884;2022-12-18T06:35:35;101459.84;;;10.08;100.00
47524;BME280;33253;42.144;25.884;2022-12-18T06:38:01;101502.56;;;10.34;100.00
47524;BME280;33253;42.144;25.884;2022-12-18T06:40:27;101491.13;;;10.29;100.00
47524;BME280;33253;42.144;25.884;2022-12-18T06:42:52;101512.47;;;10.41;100.00
47524;BME280;33253;42.144;25.884;2022-12-18T06:45:18;101496.13;;;10.26;100.00
47524;BME280;33253;42.144;25.884;2022-12-18T06:47:43;101524.41;;;10.39;100.00
47524;BME280;33253;42.144;25.884;2022-12-18T06:50:09;101526.09;;;10.39;100.00
47524;BME280;33253;42.144;25.884;2022-12-18T06:52:34;101514.78;;;10.36;100.00
47524;BME280;33253;42.144;25.884;2022-12-18T06:55:00;101522.25;;;10.47;100.00
47524;BME280;33253;42.144;25.884;2022-12-18T06:57:25;101524.72;;;10.45;100.00
47524;BME280;33253;42.144;25.884;2022-12-18T06:59:51;101528.13;;;10.44;100.00
47524;BME280;33253;42.144;25.884;2022-12-18T07:02:16;101504.28;;;10.33;100.00
47524;BME280;33253;42.144;25.884;2022-12-18T07:04:42;101546.56;;;10.50;100.00
47524;BME280;33253;42.144;25.884;2022-12-18T07:07:08;101538.13;;;10.38;100.00
47524;BME280;33253;42.144;25.884;2022-12-18T07:09:33;101558.78;;;10.38;100.00
47524;BME280;33253;42.144;25.884;2022-12-18T07:12:00;101545.63;;;10.18;100.00
47524;BME280;33253;42.144;25.884;2022-12-18T07:14:25;101549.78;;;10.16;100.00
47524;BME280;33253;42.144;25.884;2022-12-18T07:16:51;101552.72;;;10.23;100.00
47524;BME280;33253;42.144;25.884;2022-12-18T07:19:16;101553.06;;;10.29;100.00
47524;BME280;33253;42.144;25.884;2022-12-18T07:21:41;101571.84;;;10.41;100.00
47524;BME280;33253;42.144;25.884;2022-12-18T07:24:07;101584.28;;;10.48;100.00
47524;BME280;33253;42.144;25.884;2022-12-18T07:26:33;101581.97;;;10.53;100.00
47524;BME280;33253;42.144;25.884;2022-12-18T07:28:59;101588.66;;;10.49;100.00
47524;BME280;33253;42.144;25.884;2022-12-18T07:31:25;101580.66;;;10.45;100.00
47524;BME280;33253;42.144;25.884;2022-12-18T07:33:51;101593.81;;;10.49;100.00
47524;BME280;33253;42.144;25.884;2022-12-18T07:36:17;101588.47;;;10.46;100.00
47524;BME280;33253;42.144;25.884;2022-12-18T07:38:43;101583.31;;;10.46;100.00
47524;BME280;33253;42.144;25.884;2022-12-18T07:41:12;101580.66;;;10.45;100.00
47524;BME280;33253;42.144;25.884;2022-12-18T07:43:39;101592.75;;;10.46;100.00
47524;BME280;33253;42.144;25.884;2022-12-18T07:46:06;101589.53;;;10.35;100.00
47524;BME280;33253;42.144;25.884;2022-12-18T07:48:32;101563.34;;;10.12;100.00
47524;BME280;33253;42.144;25.884;2022-12-18T07:50:58;101597.38;;;10.22;100.00
47524;BME280;33253;42.144;25.884;2022-12-18T07:53:24;101627.81;;;10.27;100.00
47524;BME280;33253;42.144;25.884;2022-12-18T07:55:57;101630.34;;;10.26;100.00
47524;BME280;33253;42.144;25.884;2022-12-18T07:58:23;101635.31;;;10.23;100.00
47524;BME280;33253;42.144;25.884;2022-12-18T08:00:49;101630.78;;;10.18;100.00
47524;BME280;33253;42.144;25.884;2022-12-18T08:03:14;101632.03;;;10.10;100.00
47524;BME280;33253;42.144;25.884;2022-12-18T08:05:39;101650.63;;;10.04;100.00
47524;BME280;33253;42.144;25.884;2022-12-18T08:08:05;101641.09;;;9.88;100.00
47524;BME280;33253;42.144;25.884;2022-12-18T08:10:30;101637.53;;;9.71;100.00
47524;BME280;33253;42.144;25.884;2022-12-18T08:12:56;101650.63;;;9.75;100.00
47524;BME280;33253;42.144;25.884;2022-12-18T08:15:21;101592.47;;;9.21;100.00
47524;BME280;33253;42.144;25.884;2022-12-18T08:17:47;101660.44;;;9.67;100.00
47524;BME280;33253;42.144;25.884;2022-12-18T08:20:12;101659.03;;;9.57;100.00
47524;BME280;33253;42.144;25.884;2022-12-18T08:22:42;101635.69;;;9.41;100.00
47524;BME280;33253;42.144;25.884;2022-12-18T08:25:08;101673.13;;;9.49;100.00
47524;BME280;33253;42.144;25.884;2022-12-18T08:27:34;101665.91;;;9.43;100.00
47524;BME280;33253;42.144;25.884;2022-12-18T08:29:59;101663.25;;;9.42;100.00
47524;BME280;33253;42.144;25.884;2022-12-18T08:32:26;101686.53;;;9.43;100.00
47524;BME280;33253;42.144;25.884;2022-12-18T08:34:52;101670.59;;;9.35;100.00
47524;BME280;33253;42.144;25.884;2022-12-18T08:37:17;101684.31;;;9.49;100.00
47524;BME280;33253;42.144;25.884;2022-12-18T08:39:42;101676.84;;;9.39;100.00
47524;BME280;33253;42.144;25.884;2022-12-18T08:42:08;101682.28;;;9.44;100.00
47524;BME280;33253;42.144;25.884;2022-12-18T08:44:52;101692.06;;;9.49;100.00
47524;BME280;33253;42.144;25.884;2022-12-18T08:47:17;101691.97;;;9.48;100.00
47524;BME280;33253;42.144;25.884;2022-12-18T08:49:43;101694.91;;;9.54;100.00
47524;BME280;33253;42.144;25.884;2022-12-18T08:52:08;101694.03;;;9.53;100.00
47524;BME280;33253;42.144;25.884;2022-12-18T08:54:34;101684.16;;;9.46;100.00
47524;BME280;33253;42.144;25.884;2022-12-18T08:56:59;101684.94;;;9.45;100.00
47524;BME280;33253;42.144;25.884;2022-12-18T08:59:25;101686.75;;;9.33;100.00
47524;BME280;33253;42.144;25.884;2022-12-18T09:01:53;101683.81;;;9.27;100.00
47524;BME280;33253;42.144;25.884;2022-12-18T09:04:19;101668.97;;;9.22;100.00
47524;BME280;33253;42.144;25.884;2022-12-18T09:06:44;101648.09;;;9.04;100.00
47524;BME280;33253;42.144;25.884;2022-12-18T09:09:09;101647.44;;;8.94;100.00
47524;BME280;33253;42.144;25.884;2022-12-18T09:11:35;101668.44;;;9.00;100.00
47524;BME280;33253;42.144;25.884;2022-12-18T09:14:01;101682.56;;;9.06;100.00
47524;BME280;33253;42.144;25.884;2022-12-18T09:16:28;101673.66;;;9.01;100.00
47524;BME280;33253;42.144;25.884;2022-12-18T09:18:57;101633.41;;;8.75;100.00
47524;BME280;33253;42.144;25.884;2022-12-18T09:21:28;101670.09;;;8.99;100.00
47524;BME280;33253;42.144;25.884;2022-12-18T09:23:55;101693.06;;;9.10;100.00
47524;BME280;33253;42.144;25.884;2022-12-18T09:26:22;101704.06;;;9.07;100.00
47524;BME280;33253;42.144;25.884;2022-12-18T09:28:48;101699.13;;;9.10;100.00
47524;BME280;33253;42.144;25.884;2022-12-18T09:31:14;101683.75;;;9.12;100.00
47524;BME280;33253;42.144;25.884;2022-12-18T09:33:40;101692.78;;;9.18;100.00
47524;BME280;33253;42.144;25.884;2022-12-18T09:36:08;101693.56;;;9.17;100.00
47524;BME280;33253;42.144;25.884;2022-12-18T09:38:34;101687.31;;;9.14;100.00
47524;BME280;33253;42.144;25.884;2022-12-18T09:43:43;101696.44;;;9.09;100.00
47524;BME280;33253;42.144;25.884;2022-12-18T09:46:17;101657.94;;;8.83;100.00
47524;BME280;33253;42.144;25.884;2022-12-18T09:48:48;101674.94;;;8.95;100.00
47524;BME280;33253;42.144;25.884;2022-12-18T09:54:07;101666.66;;;8.85;100.00
47524;BME280;33253;42.144;25.884;2022-12-18T09:56:40;101671.59;;;8.96;100.00
47524;BME280;33253;42.144;25.884;2022-12-18T09:59:21;101657.34;;;8.87;100.00
47524;BME280;33253;42.144;25.884;2022-12-18T10:01:47;101660.13;;;8.90;100.00
47524;BME280;33253;42.144;25.884;2022-12-18T10:04:13;101669.81;;;8.95;100.00
47524;BME280;33253;42.144;25.884;2022-12-18T10:06:46;101633.41;;;8.75;100.00
47524;BME280;33253;42.144;25.884;2022-12-18T10:14:34;101646.19;;;8.73;100.00
47524;BME280;33253;42.144;25.884;2022-12-18T10:25:23;101673.66;;;9.01;100.00
47524;BME280;33253;42.144;25.884;2022-12-18T10:27:54;101652.09;;;8.86;100.00
47524;BME280;33253;42.144;25.884;2022-12-18T10:30:22;101670.63;;;8.94;100.00
47524;BME280;33253;42.144;25.884;2022-12-18T10:32:48;101683.88;;;9.00;100.00
47524;BME280;33253;42.144;25.884;2022-12-18T10:35:20;101591.66;;;8.52;100.00
47524;BME280;33253;42.144;25.884;2022-12-18T10:43:44;101672.59;;;8.98;100.00
47524;BME280;33253;42.144;25.884;2022-12-18T10:51:33;101699.13;;;8.83;100.00
47524;BME280;33253;42.144;25.884;2022-12-18T10:54:02;101659.34;;;8.65;100.00
47524;BME280;33253;42.144;25.884;2022-12-18T10:56:30;101693.03;;;8.81;100.00
47524;BME280;33253;42.144;25.884;2022-12-18T10:59:02;101681.34;;;8.73;100.00
47524;BME280;33253;42.144;25.884;2022-12-18T11:04:23;101702.53;;;8.69;100.00
47524;BME280;33253;42.144;25.884;2022-12-18T11:09:37;101688.34;;;8.62;100.00
47524;BME280;33253;42.144;25.884;2022-12-18T11:12:23;101704.81;;;8.78;100.00
47524;BME280;33253;42.144;25.884;2022-12-18T11:14:51;101717.78;;;8.79;100.00
47524;BME280;33253;42.144;25.884;2022-12-18T11:19:53;101697.28;;;8.54;100.00
47524;BME280;33253;42.144;25.884;2022-12-18T11:22:27;101714.09;;;8.62;100.00
47524;BME280;33253;42.144;25.884;2022-12-18T11:25:18;101719.56;;;8.80;100.00
47524;BME280;33253;42.144;25.884;2022-12-18T11:27:59;101691.75;;;8.61;100.00
47524;BME280;33253;42.144;25.884;2022-12-18T11:32:56;101723.53;;;8.75;100.00
47524;BME280;33253;42.144;25.884;2022-12-18T11:40:53;101719.94;;;8.73;100.00
47524;BME280;33253;42.144;25.884;2022-12-18T11:43:41;101740.63;;;8.74;100.00
47524;BME280;33253;42.144;25.884;2022-12-18T11:46:23;101733.75;;;8.73;100.00
47524;BME280;33253;42.144;25.884;2022-12-18T11:48:58;101732.34;;;8.79;100.00
47524;BME280;33253;42.144;25.884;2022-12-18T11:51:38;101700.34;;;8.62;100.00
47524;BME280;33253;42.144;25.884;2022-12-18T11:54:13;101704.50;;;8.73;100.00
47524;BME280;33253;42.144;25.884;2022-12-18T11:56:46;101717.69;;;8.78;100.00
47524;BME280;33253;42.144;25.884;2022-12-18T12:09:24;101745.59;;;8.98;100.00
47524;BME280;33253;42.144;25.884;2022-12-18T12:14:37;101742.44;;;9.02;100.00
47524;BME280;33253;42.144;25.884;2022-12-18T12:19:44;101735.88;;;8.94;100.00
47524;BME280;33253;42.144;25.884;2022-12-18T12:22:18;101739.34;;;8.95;100.00
47524;BME280;33253;42.144;25.884;2022-12-18T12:35:59;101779.59;;;9.06;100.00
47524;BME280;33253;42.144;25.884;2022-12-18T12:38:28;101740.34;;;8.83;100.00
47524;BME280;33253;42.144;25.884;2022-12-18T12:41:03;101770.66;;;9.01;100.00
47524;BME280;33253;42.144;25.884;2022-12-18T12:43:43;101782.03;;;9.04;100.00
47524;BME280;33253;42.144;25.884;2022-12-18T12:46:11;101780.56;;;8.95;100.00
47524;BME280;33253;42.144;25.884;2022-12-18T12:48:53;101764.03;;;8.91;100.00
47524;BME280;33253;42.144;25.884;2022-12-18T12:51:38;101807.81;;;9.04;100.00
47524;BME280;33253;42.144;25.884;2022-12-18T12:54:36;101703.69;;;8.34;100.00
47524;BME280;33253;42.144;25.884;2022-12-18T13:00:00;101703.84;;;8.23;100.00
47524;BME280;33253;42.144;25.884;2022-12-18T13:02:33;101716.59;;;8.22;100.00
47524;BME280;33253;42.144;25.884;2022-12-18T13:05:25;101825.63;;;8.88;100.00
47524;BME280;33253;42.144;25.884;2022-12-18T13:07:59;101812.72;;;8.74;100.00
47524;BME280;33253;42.144;25.884;2022-12-18T13:13:09;101825.63;;;8.88;100.00
47524;BME280;33253;42.144;25.884;2022-12-18T13:15:44;101833.34;;;8.88;100.00
47524;BME280;33253;42.144;25.884;2022-12-18T13:18:14;101788.75;;;8.62;100.00
47524;BME280;33253;42.144;25.884;2022-12-18T13:20:44;101777.94;;;8.54;100.00
47524;BME280;33253;42.144;25.884;2022-12-18T13:31:57;101850.75;;;8.40;100.00
47524;BME280;33253;42.144;25.884;2022-12-18T13:34:29;101869.06;;;8.56;100.00
47524;BME280;33253;42.144;25.884;2022-12-18T13:39:56;101844.38;;;8.35;100.00
47524;BME280;33253;42.144;25.884;2022-12-18T13:42:31;101867.47;;;8.58;100.00
47524;BME280;33253;42.144;25.884;2022-12-18T13:48:29;101876.00;;;8.46;100.00
47524;BME280;33253;42.144;25.884;2022-12-18T13:51:00;101887.34;;;8.48;100.00
47524;BME280;33253;42.144;25.884;2022-12-18T13:53:30;101844.81;;;8.16;100.00
47524;BME280;33253;42.144;25.884;2022-12-18T13:55:58;101873.53;;;8.22;100.00
47524;BME280;33253;42.144;25.884;2022-12-18T13:58:24;101876.09;;;8.22;100.00
47524;BME280;33253;42.144;25.884;2022-12-18T14:00:49;101892.75;;;8.27;100.00
47524;BME280;33253;42.144;25.884;2022-12-18T14:03:20;101904.25;;;8.32;100.00
47524;BME280;33253;42.144;25.884;2022-12-18T14:05:52;101889.03;;;8.35;100.00
47524;BME280;33253;42.144;25.884;2022-12-18T14:08:20;101880.78;;;8.28;100.00
47524;BME280;33253;42.144;25.884;2022-12-18T14:10:47;101889.06;;;8.23;100.00
47524;BME280;33253;42.144;25.884;2022-12-18T14:13:24;101901.66;;;8.07;100.00
47524;BME280;33253;42.144;25.884;2022-12-18T14:15:53;101878.56;;;7.83;100.00
47524;BME280;33253;42.144;25.884;2022-12-18T14:18:23;101916.06;;;8.05;100.00
47524;BME280;33253;42.144;25.884;2022-12-18T14:20:51;101911.50;;;8.01;100.00
47524;BME280;33253;42.144;25.884;2022-12-18T14:23:33;101925.81;;;7.97;100.00
47524;BME280;33253;42.144;25.884;2022-12-18T14:26:00;101905.97;;;7.71;100.00
47524;BME280;33253;42.144;25.884;2022-12-18T14:28:28;101926.31;;;7.80;100.00
47524;BME280;33253;42.144;25.884;2022-12-18T14:30:54;101931.25;;;7.76;100.00
47524;BME280;33253;42.144;25.884;2022-12-18T14:33:21;101933.81;;;7.76;100.00
47524;BME280;33253;42.144;25.884;2022-12-18T14:35:56;101939.25;;;7.81;100.00
47524;BME280;33253;42.144;25.884;2022-12-18T14:40:54;101929.22;;;7.49;100.00
47524;BME280;33253;42.144;25.884;2022-12-18T14:43:20;101947.75;;;7.33;100.00
47524;BME280;33253;42.144;25.884;2022-12-18T14:45:47;101948.38;;;7.06;100.00
47524;BME280;33253;42.144;25.884;2022-12-18T14:48:19;101966.50;;;7.08;100.00